createdAt,value
2023-03-20T00:02:28.225Z,84.43
2023-03-20T00:04:56.995Z,77.30
2023-03-20T00:07:26.680Z,73.43
2023-03-20T00:09:58.409Z,72.00
2023-03-20T00:12:27.491Z,71.05
2023-03-20T00:14:56.451Z,72.13
2023-03-20T00:17:25.745Z,73.05
2023-03-20T00:19:55.122Z,73.10
2023-03-20T00:22:24.214Z,72.30
2023-03-20T00:24:53.126Z,68.70
2023-03-20T00:27:22.384Z,65.22
2023-03-20T00:29:51.243Z,63.90
2023-03-20T00:32:20.556Z,64.22
2023-03-20T00:34:49.936Z,61.13
2023-03-20T00:37:18.856Z,60.58
2023-03-20T00:39:47.705Z,57.85
2023-03-20T00:42:26.849Z,56.28
2023-03-20T00:44:57.229Z,60.28
2023-03-20T00:47:26.681Z,60.72
2023-03-20T00:49:56.865Z,59.33
2023-03-20T00:52:26.658Z,58.53
2023-03-20T00:54:55.524Z,59.53
2023-03-20T00:57:32.030Z,58.63
2023-03-20T01:00:10.279Z,57.50
2023-03-20T01:02:44.133Z,57.50
2023-03-20T01:05:18.237Z,53.20
2023-03-20T01:07:51.880Z,51.67
2023-03-20T01:10:27.746Z,53.22
2023-03-20T01:13:04.616Z,53.95
2023-03-20T01:15:40.495Z,56.00
2023-03-20T01:18:17.457Z,56.65
2023-03-20T01:20:47.211Z,56.25
2023-03-20T01:23:16.931Z,55.83
2023-03-20T01:25:47.151Z,57.72
2023-03-20T01:28:23.187Z,60.72
2023-03-20T01:30:53.682Z,59.83
2023-03-20T01:33:27.735Z,57.13
2023-03-20T01:35:58.752Z,59.25
2023-03-20T01:38:29.859Z,60.50
2023-03-20T01:43:45.566Z,59.38
2023-03-20T01:46:20.935Z,57.88
2023-03-20T01:48:52.091Z,59.30
2023-03-20T01:51:29.541Z,57.03
2023-03-20T01:54:31.169Z,57.45
2023-03-20T01:57:13.118Z,60.58
2023-03-20T02:00:05.442Z,61.30
2023-03-20T02:02:46.760Z,64.65
2023-03-20T02:05:34.330Z,67.72
2023-03-20T02:08:25.256Z,66.97
2023-03-20T02:10:56.430Z,71.45
2023-03-20T02:13:32.622Z,70.93
2023-03-20T02:18:53.239Z,85.32
2023-03-20T02:21:43.724Z,103.35
2023-03-20T02:24:30.461Z,111.03
2023-03-20T02:27:10.384Z,114.60
2023-03-20T02:29:55.018Z,102.35
2023-03-20T02:32:40.754Z,101.70
2023-03-20T02:35:29.050Z,105.47
2023-03-20T02:38:38.853Z,108.53
2023-03-20T02:41:23.686Z,107.90
2023-03-20T02:44:20.322Z,107.85
2023-03-20T02:47:05.793Z,104.75
2023-03-20T02:50:05.664Z,128.52
2023-03-20T02:52:37.882Z,157.07
2023-03-20T02:55:28.953Z,155.40
2023-03-20T02:58:21.673Z,167.52
2023-03-20T03:01:00.280Z,171.60
2023-03-20T03:03:53.014Z,175.63
2023-03-20T03:06:30.830Z,165.05
2023-03-20T03:09:10.814Z,170.35
2023-03-20T03:11:45.644Z,135.48
2023-03-20T03:14:33.888Z,112.78
2023-03-20T03:17:08.196Z,108.20
2023-03-20T03:19:41.236Z,131.70
2023-03-20T03:22:13.402Z,147.48
2023-03-20T03:24:52.069Z,123.68
2023-03-20T03:27:30.397Z,111.30
2023-03-20T03:30:12.260Z,100.43
2023-03-20T03:32:52.782Z,102.03
2023-03-20T03:35:25.909Z,104.25
2023-03-20T03:38:22.450Z,100.88
2023-03-20T03:41:02.816Z,99.15
2023-03-20T03:43:46.879Z,90.70
2023-03-20T03:46:27.682Z,84.05
2023-03-20T03:48:59.630Z,91.22
2023-03-20T03:51:33.015Z,91.63
2023-03-20T03:54:20.070Z,69.60
2023-03-20T03:57:11.501Z,72.95
2023-03-20T03:59:47.193Z,60.15
2023-03-20T04:02:19.055Z,53.33
2023-03-20T04:04:53.192Z,57.92
2023-03-20T04:07:23.108Z,63.03
2023-03-20T04:09:52.854Z,61.30
2023-03-20T04:12:45.640Z,61.08
2023-03-20T04:15:16.947Z,59.15
2023-03-20T04:17:47.373Z,54.65
2023-03-20T04:20:18.689Z,51.35
2023-03-20T04:22:51.824Z,45.30
2023-03-20T04:25:27.134Z,49.20
2023-03-20T04:27:57.910Z,41.78
2023-03-20T04:31:06.475Z,40.75
2023-03-20T04:33:54.447Z,41.60
2023-03-20T04:36:32.503Z,44.25
2023-03-20T04:39:02.129Z,43.83
2023-03-20T04:41:31.229Z,42.80
2023-03-20T04:44:00.451Z,43.72
2023-03-20T04:46:30.887Z,46.08
2023-03-20T04:49:01.958Z,48.30
2023-03-20T04:51:32.608Z,46.55
2023-03-20T04:54:02.217Z,48.20
2023-03-20T04:56:31.817Z,49.80
2023-03-20T04:59:21.574Z,47.67
2023-03-20T05:01:53.005Z,46.28
2023-03-20T05:04:24.542Z,43.03
2023-03-20T05:06:54.036Z,42.90
2023-03-20T05:11:56.822Z,41.03
2023-03-20T05:14:58.568Z,40.53
2023-03-20T05:17:46.298Z,41.08
2023-03-20T05:20:33.583Z,38.17
2023-03-20T05:23:25.835Z,33.53
2023-03-20T05:26:08.539Z,31.25
2023-03-20T05:28:57.614Z,27.75
2023-03-20T05:31:45.185Z,29.63
2023-03-20T05:34:33.700Z,27.48
2023-03-20T05:37:21.268Z,25.60
2023-03-20T05:40:18.377Z,27.90
2023-03-20T05:43:00.224Z,24.88
2023-03-20T05:45:44.929Z,25.73
2023-03-20T05:48:33.468Z,25.27
2023-03-20T05:51:20.902Z,24.67
2023-03-20T05:54:09.386Z,25.60
2023-03-20T05:56:59.027Z,23.73
2023-03-20T05:59:54.931Z,20.42
2023-03-20T06:02:50.449Z,20.13
2023-03-20T06:05:57.932Z,19.38
2023-03-20T06:08:27.463Z,20.50
2023-03-20T06:10:57.115Z,21.33
2023-03-20T06:13:27.403Z,21.17
2023-03-20T06:15:57.345Z,20.25
2023-03-20T06:18:27.114Z,19.33
2023-03-20T06:20:59.060Z,21.30
2023-03-20T06:23:31.187Z,21.50
2023-03-20T06:26:03.265Z,19.20
2023-03-20T06:28:44.291Z,22.73
2023-03-20T06:31:13.660Z,29.27
2023-03-20T06:33:42.518Z,27.65
2023-03-20T06:36:11.741Z,26.80
2023-03-20T06:38:40.793Z,24.17
2023-03-20T06:41:24.553Z,21.05
2023-03-20T06:44:04.769Z,25.27
2023-03-20T06:46:53.940Z,20.33
2023-03-20T06:49:23.195Z,24.20
2023-03-20T06:51:52.153Z,20.48
2023-03-20T06:54:28.806Z,23.27
2023-03-20T06:56:58.833Z,16.42
2023-03-20T06:59:28.173Z,15.95
2023-03-20T07:01:59.207Z,17.67
2023-03-20T07:04:29.204Z,14.88
2023-03-20T07:07:02.085Z,15.90
2023-03-20T07:09:31.335Z,14.95
2023-03-20T07:12:01.011Z,14.88
2023-03-20T07:14:32.365Z,16.42
2023-03-20T07:17:09.998Z,18.85
2023-03-20T07:19:39.654Z,17.75
2023-03-20T07:22:16.438Z,18.30
2023-03-20T07:24:47.304Z,18.80
2023-03-20T07:27:17.429Z,17.98
2023-03-20T07:29:47.329Z,16.75
2023-03-20T07:32:19.807Z,17.75
2023-03-20T07:34:51.943Z,17.83
2023-03-20T07:37:22.313Z,17.83
2023-03-20T07:40:02.171Z,20.17
2023-03-20T07:42:34.018Z,18.02
2023-03-20T07:45:15.317Z,18.45
2023-03-20T07:47:49.978Z,17.80
2023-03-20T07:50:19.233Z,17.60
2023-03-20T07:52:55.016Z,17.38
2023-03-20T07:55:24.214Z,17.50
2023-03-20T07:57:53.126Z,18.17
2023-03-20T08:00:22.401Z,17.52
2023-03-20T08:02:51.681Z,17.60
2023-03-20T08:05:20.655Z,20.52
2023-03-20T08:07:49.565Z,19.55
2023-03-20T08:10:18.876Z,20.70
2023-03-20T08:12:47.830Z,20.38
2023-03-20T08:15:17.443Z,20.23
2023-03-20T08:17:47.176Z,19.80
2023-03-20T08:20:18.012Z,20.33
2023-03-20T08:22:47.715Z,20.67
2023-03-20T08:25:16.659Z,20.98
2023-03-20T08:27:46.228Z,21.40
2023-03-20T08:30:15.674Z,19.80
2023-03-20T08:32:44.673Z,21.63
2023-03-20T08:35:29.721Z,20.65
2023-03-20T08:38:02.106Z,20.95
2023-03-20T08:40:31.667Z,20.58
2023-03-20T08:43:00.699Z,20.25
2023-03-20T08:45:29.515Z,19.17
2023-03-20T08:47:58.435Z,19.73
2023-03-20T08:50:27.913Z,19.00
2023-03-20T08:52:57.233Z,21.35
2023-03-20T08:55:25.983Z,20.25
2023-03-20T08:57:55.528Z,19.02
2023-03-20T09:00:25.389Z,18.95
2023-03-20T09:03:01.774Z,20.65
2023-03-20T09:05:33.055Z,21.45
2023-03-20T09:08:03.153Z,21.65
2023-03-20T09:10:32.095Z,20.48
2023-03-20T09:13:02.828Z,19.45
2023-03-20T09:15:35.474Z,25.40
2023-03-20T09:18:04.904Z,21.33
2023-03-20T09:20:33.784Z,19.10
2023-03-20T09:23:02.865Z,36.72
2023-03-20T09:25:31.887Z,33.33
2023-03-20T09:28:00.918Z,22.98
2023-03-20T09:30:29.650Z,20.45
2023-03-20T09:32:58.673Z,16.60
2023-03-20T09:35:27.421Z,13.05
2023-03-20T09:37:57.545Z,28.98
2023-03-20T09:40:29.678Z,21.48
2023-03-20T09:43:20.384Z,22.27
2023-03-20T09:45:55.024Z,16.92
2023-03-20T09:48:42.651Z,16.35
2023-03-20T09:51:26.456Z,16.90
2023-03-20T09:54:01.476Z,14.82
2023-03-20T09:56:32.554Z,12.48
2023-03-20T09:59:06.318Z,13.52
2023-03-20T10:02:00.281Z,12.95
2023-03-20T10:04:32.316Z,12.18
2023-03-20T10:07:16.758Z,12.77
2023-03-20T10:09:47.157Z,10.73
2023-03-20T10:12:28.491Z,12.23
2023-03-20T10:15:19.081Z,10.75
2023-03-20T10:18:15.467Z,12.02
2023-03-20T10:20:56.176Z,12.07
2023-03-20T10:23:34.775Z,11.60
2023-03-20T10:26:20.540Z,12.10
2023-03-20T10:28:53.472Z,12.27
2023-03-20T10:31:46.783Z,12.10
2023-03-20T10:34:52.692Z,12.05
2023-03-20T10:37:33.238Z,13.38
2023-03-20T10:43:01.023Z,12.93
2023-03-20T10:46:11.562Z,12.30
2023-03-20T10:49:04.859Z,14.10
2023-03-20T10:51:56.274Z,15.20
2023-03-20T10:54:49.125Z,14.63
2023-03-20T10:57:27.291Z,13.63
2023-03-20T10:59:58.702Z,14.75
2023-03-20T11:02:31.281Z,14.60
2023-03-20T11:05:23.939Z,15.65
2023-03-20T11:08:02.818Z,15.52
2023-03-20T11:10:37.573Z,15.32
2023-03-20T11:13:18.104Z,12.85
2023-03-20T11:15:47.943Z,12.68
2023-03-20T11:18:17.514Z,13.52
2023-03-20T11:20:52.965Z,13.05
2023-03-20T11:23:36.413Z,13.43
2023-03-20T11:26:07.660Z,13.45
2023-03-20T11:28:42.775Z,13.93
2023-03-20T11:31:14.783Z,13.63
2023-03-20T11:33:52.729Z,13.27
2023-03-20T11:36:28.347Z,14.88
2023-03-20T11:39:15.195Z,12.40
2023-03-20T11:41:58.594Z,13.93
2023-03-20T11:44:36.820Z,13.00
2023-03-20T11:47:18.486Z,12.45
2023-03-20T11:49:51.364Z,13.77
2023-03-20T11:52:30.625Z,13.98
2023-03-20T11:55:01.832Z,13.75
2023-03-20T11:57:46.818Z,14.02
2023-03-20T12:00:25.555Z,13.43
2023-03-20T12:02:54.648Z,14.00
2023-03-20T12:05:37.685Z,13.50
2023-03-20T12:08:28.703Z,14.15
2023-03-20T12:11:07.683Z,15.40
2023-03-20T12:13:42.364Z,14.70
2023-03-20T12:16:18.880Z,15.20
2023-03-20T12:18:58.719Z,15.82
2023-03-20T12:21:49.532Z,15.70
2023-03-20T12:24:27.167Z,14.82
2023-03-20T12:27:16.436Z,15.27
2023-03-20T12:30:02.157Z,15.18
2023-03-20T12:32:44.303Z,16.15
2023-03-20T12:35:28.154Z,17.38
2023-03-20T12:37:57.948Z,17.98
2023-03-20T12:40:44.662Z,17.23
2023-03-20T12:43:19.729Z,17.73
2023-03-20T12:46:31.612Z,17.63
2023-03-20T12:49:11.395Z,16.92
2023-03-20T12:51:58.422Z,18.15
2023-03-20T12:54:36.316Z,17.55
2023-03-20T12:57:44.451Z,20.10
2023-03-20T13:00:31.818Z,19.63
2023-03-20T13:03:04.003Z,19.92
2023-03-20T13:05:37.878Z,18.88
2023-03-20T13:08:22.156Z,19.00
2023-03-20T13:11:15.838Z,20.27
2023-03-20T13:13:52.658Z,20.50
2023-03-20T13:17:17.712Z,20.73
2023-03-20T13:20:35.613Z,19.88
2023-03-20T13:23:21.017Z,21.58
2023-03-20T13:26:05.795Z,22.92
2023-03-20T13:28:56.189Z,22.50
2023-03-20T13:31:34.938Z,23.15
2023-03-20T13:34:14.568Z,25.02
2023-03-20T13:37:22.278Z,25.60
2023-03-20T13:40:15.876Z,25.98
2023-03-20T13:42:52.165Z,25.63
2023-03-20T13:45:40.517Z,28.67
2023-03-20T13:48:21.992Z,30.50
2023-03-20T13:50:55.788Z,28.05
2023-03-20T13:53:31.650Z,33.65
2023-03-20T13:56:27.279Z,33.85
2023-03-20T13:59:19.316Z,34.58
2023-03-20T14:01:55.958Z,35.63
2023-03-20T14:04:26.109Z,33.50
2023-03-20T14:06:57.778Z,34.25
2023-03-20T14:09:38.474Z,36.97
2023-03-20T14:12:13.874Z,37.53
2023-03-20T14:14:48.480Z,35.88
2023-03-20T14:17:23.320Z,37.45
2023-03-20T14:19:53.965Z,33.90
2023-03-20T14:22:45.504Z,35.20
2023-03-20T14:25:21.853Z,35.60
2023-03-20T14:28:00.747Z,35.25
2023-03-20T14:30:32.870Z,33.10
2023-03-20T14:33:09.073Z,32.58
2023-03-20T14:35:45.714Z,30.05
2023-03-20T14:38:57.120Z,33.45
2023-03-20T14:41:57.893Z,30.85
2023-03-20T14:44:47.653Z,29.63
2023-03-20T14:47:39.876Z,27.98
2023-03-20T14:50:11.787Z,30.87
2023-03-20T14:53:09.688Z,29.95
2023-03-20T14:55:52.336Z,28.60
2023-03-20T15:01:25.350Z,28.90
2023-03-20T15:04:08.391Z,31.23
2023-03-20T15:06:49.900Z,33.33
2023-03-20T15:09:21.888Z,36.05
2023-03-20T15:11:51.126Z,42.67
2023-03-20T15:14:46.472Z,39.22
2023-03-20T15:17:28.092Z,38.33
2023-03-20T15:20:07.999Z,40.40
2023-03-20T15:22:48.600Z,35.17
2023-03-20T15:25:20.288Z,32.88
2023-03-20T15:27:50.507Z,28.65
2023-03-20T15:30:24.387Z,29.27
2023-03-20T15:32:56.874Z,27.58
2023-03-20T15:35:28.490Z,30.20
2023-03-20T15:37:59.829Z,32.15
2023-03-20T15:40:47.406Z,31.98
2023-03-20T15:43:25.089Z,30.35
2023-03-20T15:46:14.240Z,28.38
2023-03-20T15:48:49.795Z,25.50
2023-03-20T15:51:21.377Z,28.90
2023-03-20T15:53:50.731Z,27.67
2023-03-20T15:56:23.976Z,27.33
2023-03-20T15:58:54.896Z,26.83
2023-03-20T16:01:26.388Z,26.45
2023-03-20T16:04:00.507Z,27.83
2023-03-20T16:06:30.345Z,24.50
2023-03-20T16:09:09.081Z,25.23
2023-03-20T16:11:41.468Z,22.35
2023-03-20T16:14:36.807Z,20.90
2023-03-20T16:17:06.895Z,20.73
2023-03-20T16:19:35.824Z,19.35
2023-03-20T16:22:11.972Z,19.08
2023-03-20T16:24:42.536Z,18.25
2023-03-20T16:27:12.196Z,17.40
2023-03-20T16:29:44.642Z,18.35
2023-03-20T16:35:09.858Z,18.08
2023-03-20T16:38:00.567Z,19.42
2023-03-20T16:40:29.452Z,20.83
2023-03-20T16:42:58.199Z,18.65
2023-03-20T16:45:32.298Z,18.95
2023-03-20T16:48:13.228Z,19.80
2023-03-20T16:50:45.574Z,18.63
2023-03-20T16:53:22.677Z,18.63
2023-03-20T16:55:53.397Z,18.23
2023-03-20T16:58:30.038Z,17.60
2023-03-20T17:01:07.884Z,17.40
2023-03-20T17:03:46.818Z,17.35
2023-03-20T17:06:22.580Z,15.90
2023-03-20T17:09:00.830Z,17.15
2023-03-20T17:11:37.040Z,16.95
2023-03-20T17:14:06.061Z,17.63
2023-03-20T17:16:35.125Z,16.35
2023-03-20T17:19:14.520Z,18.60
2023-03-20T17:21:44.529Z,16.77
2023-03-20T17:24:14.983Z,16.63
2023-03-20T17:26:46.874Z,18.48
2023-03-20T17:29:16.423Z,16.98
2023-03-20T17:31:45.276Z,17.45
2023-03-20T17:34:15.773Z,17.40
2023-03-20T17:36:45.649Z,18.42
2023-03-20T17:39:22.548Z,19.05
2023-03-20T17:41:51.704Z,17.00
2023-03-20T17:44:20.596Z,15.63
2023-03-20T17:46:58.294Z,16.40
2023-03-20T17:49:28.257Z,17.02
2023-03-20T17:51:57.653Z,17.15
2023-03-20T17:54:27.207Z,16.25
2023-03-20T17:56:55.995Z,17.40
2023-03-20T17:59:29.580Z,16.42
2023-03-20T18:01:58.797Z,16.77
2023-03-20T18:04:27.986Z,19.55
2023-03-20T18:06:56.922Z,15.52
2023-03-20T18:09:26.817Z,14.55
2023-03-20T18:11:55.863Z,14.88
2023-03-20T18:14:24.591Z,16.30
2023-03-20T18:16:53.660Z,15.73
2023-03-20T18:19:29.329Z,15.35
2023-03-20T18:21:59.103Z,18.13
2023-03-20T18:24:28.616Z,18.30
2023-03-20T18:26:57.898Z,17.45
2023-03-20T18:29:26.866Z,18.92
2023-03-20T18:31:55.888Z,18.73
2023-03-20T18:34:24.608Z,19.90
2023-03-20T18:36:53.835Z,20.27
2023-03-20T18:39:25.421Z,20.33
2023-03-20T18:41:54.637Z,17.33
2023-03-20T18:44:23.487Z,23.58
2023-03-20T18:46:52.427Z,25.15
2023-03-20T18:49:21.240Z,28.35
2023-03-20T18:51:50.705Z,27.42
2023-03-20T18:54:19.689Z,28.00
2023-03-20T18:56:50.758Z,25.58
2023-03-20T18:59:20.413Z,24.77
2023-03-20T19:01:50.160Z,23.92
2023-03-20T19:04:19.374Z,23.65
2023-03-20T19:06:49.505Z,22.92
2023-03-20T19:09:19.317Z,24.38
2023-03-20T19:11:48.206Z,23.65
2023-03-20T19:14:17.237Z,23.40
2023-03-20T19:16:47.213Z,22.90
2023-03-20T19:19:17.464Z,24.38
2023-03-20T19:21:46.428Z,23.63
2023-03-20T19:24:15.215Z,24.38
2023-03-20T19:26:44.350Z,22.48
2023-03-20T19:29:14.748Z,28.17
2023-03-20T19:31:43.694Z,24.45
2023-03-20T19:34:36.761Z,24.88
2023-03-20T19:37:01.949Z,24.23
2023-03-20T19:39:31.178Z,31.90
2023-03-20T19:42:15.333Z,27.15
2023-03-20T19:44:49.580Z,27.20
2023-03-20T19:47:18.387Z,29.33
2023-03-20T19:49:47.337Z,28.33
2023-03-20T19:52:34.656Z,28.55
2023-03-20T19:55:03.970Z,28.90
2023-03-20T19:57:33.005Z,30.48
2023-03-20T20:00:48.688Z,32.95
2023-03-20T20:02:51.579Z,31.00
2023-03-20T20:05:33.693Z,30.75
2023-03-20T20:08:30.910Z,38.42
2023-03-20T20:10:55.659Z,36.55
2023-03-20T20:13:27.790Z,32.22
2023-03-20T20:15:58.883Z,28.85
2023-03-20T20:18:29.538Z,29.40
2023-03-20T20:21:59.896Z,28.60
2023-03-20T20:23:47.990Z,30.98
2023-03-20T20:26:16.854Z,29.65
2023-03-20T20:28:46.106Z,31.73
2023-03-20T20:31:14.787Z,33.03
2023-03-20T20:34:00.032Z,31.92
2023-03-20T20:37:26.048Z,30.65
2023-03-20T20:39:22.123Z,30.20
2023-03-20T20:41:51.653Z,31.48
2023-03-20T20:44:20.414Z,27.88
2023-03-20T20:46:49.217Z,25.90
2023-03-20T20:49:19.769Z,28.15
2023-03-20T20:51:49.968Z,30.35
2023-03-20T20:54:18.803Z,27.77
2023-03-20T20:56:47.875Z,26.58
2023-03-20T20:59:16.719Z,26.60
2023-03-20T21:01:45.937Z,26.15
2023-03-20T21:04:14.731Z,27.05
2023-03-20T21:07:08.207Z,25.75
2023-03-20T21:09:33.279Z,39.38
2023-03-20T21:12:02.293Z,33.38
2023-03-20T21:14:31.575Z,59.30
2023-03-20T21:17:03.338Z,31.63
2023-03-20T21:19:36.353Z,30.13
2023-03-20T21:22:06.454Z,28.52
2023-03-20T21:24:35.945Z,26.33
2023-03-20T21:27:07.743Z,26.58
2023-03-20T21:29:36.699Z,24.95
2023-03-20T21:32:06.626Z,24.55
2023-03-20T21:34:35.705Z,23.52
2023-03-20T21:38:08.714Z,22.65
2023-03-20T21:39:54.189Z,22.80
2023-03-20T21:42:22.999Z,22.58
2023-03-20T21:45:44.817Z,23.58
2023-03-20T21:50:52.928Z,29.52
2023-03-20T22:02:07.127Z,32.22
2023-03-20T22:07:58.290Z,30.38
2023-03-20T22:14:05.957Z,30.52
2023-03-20T22:16:33.742Z,30.63
2023-03-20T22:22:05.351Z,34.10
2023-03-20T22:30:43.538Z,37.53
2023-03-20T22:33:31.170Z,37.55
2023-03-20T22:36:21.497Z,37.25
2023-03-20T22:46:57.584Z,30.00
2023-03-20T22:49:26.368Z,30.10
2023-03-20T22:52:15.323Z,30.10
2023-03-20T22:54:45.259Z,28.05
2023-03-20T22:57:14.050Z,29.60
2023-03-20T22:59:43.124Z,26.55
2023-03-20T23:02:11.896Z,26.58
2023-03-20T23:04:40.803Z,25.92
2023-03-20T23:07:09.560Z,27.02
2023-03-20T23:09:38.753Z,27.80
2023-03-20T23:12:07.630Z,29.30
2023-03-20T23:14:45.498Z,29.77
2023-03-20T23:17:15.469Z,29.52
2023-03-20T23:19:49.102Z,29.48
2023-03-20T23:22:21.453Z,30.48
2023-03-20T23:24:50.214Z,28.17
2023-03-20T23:27:21.289Z,29.25
2023-03-20T23:29:50.387Z,27.50
2023-03-20T23:32:19.127Z,25.48
2023-03-20T23:34:48.069Z,25.77
2023-03-20T23:37:16.854Z,24.15
2023-03-20T23:39:45.767Z,23.67
2023-03-20T23:42:29.680Z,23.17
2023-03-20T23:45:07.159Z,24.63
2023-03-20T23:47:45.090Z,24.33
2023-03-20T23:50:26.358Z,22.70
2023-03-20T23:53:09.424Z,26.48
2023-03-20T23:55:44.294Z,25.83
2023-03-20T23:58:14.573Z,27.30
